sensor_id;sensor_type;location;lat;lon;timestamp;P1;durP1;ratioP1;P2;durP2;ratioP2
19747;SDS011;10032;51.386;12.516;2023-02-01T00:00:14;8.73;;;3.57;;
19747;SDS011;10032;51.386;12.516;2023-02-01T00:02:39;5.00;;;3.07;;
19747;SDS011;10032;51.386;12.516;2023-02-01T00:05:09;5.93;;;3.37;;
19747;SDS011;10032;51.386;12.516;2023-02-01T00:07:35;6.33;;;3.40;;
19747;SDS011;10032;51.386;12.516;2023-02-01T00:10:03;8.00;;;3.70;;
19747;SDS011;10032;51.386;12.516;2023-02-01T00:12:30;6.30;;;3.73;;
19747;SDS011;10032;51.386;12.516;2023-02-01T00:14:55;4.67;;;3.13;;
19747;SDS011;10032;51.386;12.516;2023-02-01T00:17:21;9.57;;;3.43;;
19747;SDS011;10032;51.386;12.516;2023-02-01T00:19:46;7.00;;;2.77;;
19747;SDS011;10032;51.386;12.516;2023-02-01T00:22:11;5.03;;;2.77;;
19747;SDS011;10032;51.386;12.516;2023-02-01T00:24:37;6.63;;;3.77;;
19747;SDS011;10032;51.386;12.516;2023-02-01T00:27:02;5.63;;;3.53;;
19747;SDS011;10032;51.386;12.516;2023-02-01T00:29:28;7.17;;;3.30;;
19747;SDS011;10032;51.386;12.516;2023-02-01T00:31:53;4.07;;;2.60;;
19747;SDS011;10032;51.386;12.516;2023-02-01T00:34:19;7.57;;;2.57;;
19747;SDS011;10032;51.386;12.516;2023-02-01T00:36:45;4.93;;;2.70;;
19747;SDS011;10032;51.386;12.516;2023-02-01T00:39:11;8.57;;;2.80;;
19747;SDS011;10032;51.386;12.516;2023-02-01T00:41:37;5.07;;;2.73;;
19747;SDS011;10032;51.386;12.516;2023-02-01T00:44:03;5.17;;;2.37;;
19747;SDS011;10032;51.386;12.516;2023-02-01T00:46:28;5.23;;;2.83;;
19747;SDS011;10032;51.386;12.516;2023-02-01T00:48:54;5.03;;;2.40;;
19747;SDS011;10032;51.386;12.516;2023-02-01T00:51:21;3.93;;;2.40;;
19747;SDS011;10032;51.386;12.516;2023-02-01T00:53:48;6.07;;;2.70;;
19747;SDS011;10032;51.386;12.516;2023-02-01T00:56:14;4.27;;;2.60;;
19747;SDS011;10032;51.386;12.516;2023-02-01T00:58:40;5.70;;;2.80;;
19747;SDS011;10032;51.386;12.516;2023-02-01T01:03:35;7.20;;;2.83;;
19747;SDS011;10032;51.386;12.516;2023-02-01T01:06:03;6.23;;;1.93;;
19747;SDS011;10032;51.386;12.516;2023-02-01T01:08:34;7.90;;;2.23;;
19747;SDS011;10032;51.386;12.516;2023-02-01T01:11:11;10.10;;;3.00;;
19747;SDS011;10032;51.386;12.516;2023-02-01T01:13:41;3.87;;;2.10;;
19747;SDS011;10032;51.386;12.516;2023-02-01T01:16:08;6.67;;;2.10;;
19747;SDS011;10032;51.386;12.516;2023-02-01T01:18:35;5.27;;;3.00;;
19747;SDS011;10032;51.386;12.516;2023-02-01T01:21:01;6.73;;;2.83;;
19747;SDS011;10032;51.386;12.516;2023-02-01T01:23:28;7.60;;;2.87;;
19747;SDS011;10032;51.386;12.516;2023-02-01T01:25:54;4.77;;;2.17;;
19747;SDS011;10032;51.386;12.516;2023-02-01T01:28:20;5.27;;;2.07;;
19747;SDS011;10032;51.386;12.516;2023-02-01T01:30:45;7.17;;;2.50;;
19747;SDS011;10032;51.386;12.516;2023-02-01T01:33:11;4.93;;;2.27;;
19747;SDS011;10032;51.386;12.516;2023-02-01T01:35:36;5.33;;;2.53;;
19747;SDS011;10032;51.386;12.516;2023-02-01T01:38:02;3.83;;;1.97;;
19747;SDS011;10032;51.386;12.516;2023-02-01T01:40:28;7.43;;;2.20;;
19747;SDS011;10032;51.386;12.516;2023-02-01T01:42:55;8.20;;;2.67;;
19747;SDS011;10032;51.386;12.516;2023-02-01T01:47:55;3.30;;;2.37;;
19747;SDS011;10032;51.386;12.516;2023-02-01T01:50:30;4.57;;;2.30;;
19747;SDS011;10032;51.386;12.516;2023-02-01T01:52:58;5.60;;;2.77;;
19747;SDS011;10032;51.386;12.516;2023-02-01T01:55:27;3.13;;;2.37;;
19747;SDS011;10032;51.386;12.516;2023-02-01T01:58:02;10.03;;;3.23;;
19747;SDS011;10032;51.386;12.516;2023-02-01T02:00:31;6.30;;;3.00;;
19747;SDS011;10032;51.386;12.516;2023-02-01T02:03:09;6.47;;;2.60;;
19747;SDS011;10032;51.386;12.516;2023-02-01T02:05:39;5.93;;;2.50;;
19747;SDS011;10032;51.386;12.516;2023-02-01T02:08:05;6.07;;;2.47;;
19747;SDS011;10032;51.386;12.516;2023-02-01T02:10:31;5.43;;;2.43;;
19747;SDS011;10032;51.386;12.516;2023-02-01T02:13:15;5.30;;;2.97;;
19747;SDS011;10032;51.386;12.516;2023-02-01T02:15:43;4.63;;;2.30;;
19747;SDS011;10032;51.386;12.516;2023-02-01T02:18:19;7.13;;;2.37;;
19747;SDS011;10032;51.386;12.516;2023-02-01T02:23:38;4.07;;;2.33;;
19747;SDS011;10032;51.386;12.516;2023-02-01T02:36:55;5.97;;;2.37;;
19747;SDS011;10032;51.386;12.516;2023-02-01T02:39:55;5.90;;;2.50;;
19747;SDS011;10032;51.386;12.516;2023-02-01T02:45:27;4.73;;;3.00;;
19747;SDS011;10032;51.386;12.516;2023-02-01T02:48:19;7.83;;;3.17;;
19747;SDS011;10032;51.386;12.516;2023-02-01T02:54:17;5.03;;;3.00;;
19747;SDS011;10032;51.386;12.516;2023-02-01T02:57:06;6.00;;;2.50;;
19747;SDS011;10032;51.386;12.516;2023-02-01T02:59:53;4.07;;;2.63;;
19747;SDS011;10032;51.386;12.516;2023-02-01T03:02:39;5.80;;;2.70;;
19747;SDS011;10032;51.386;12.516;2023-02-01T03:05:23;4.03;;;2.43;;
19747;SDS011;10032;51.386;12.516;2023-02-01T03:10:33;4.77;;;2.50;;
19747;SDS011;10032;51.386;12.516;2023-02-01T03:13:07;4.90;;;2.53;;
19747;SDS011;10032;51.386;12.516;2023-02-01T03:18:07;5.77;;;2.57;;
19747;SDS011;10032;51.386;12.516;2023-02-01T03:20:42;9.87;;;2.50;;
19747;SDS011;10032;51.386;12.516;2023-02-01T03:23:11;5.03;;;2.60;;
19747;SDS011;10032;51.386;12.516;2023-02-01T03:25:41;6.87;;;2.93;;
19747;SDS011;10032;51.386;12.516;2023-02-01T03:28:08;6.20;;;2.80;;
19747;SDS011;10032;51.386;12.516;2023-02-01T03:30:36;5.57;;;2.77;;
19747;SDS011;10032;51.386;12.516;2023-02-01T03:33:06;5.20;;;3.07;;
19747;SDS011;10032;51.386;12.516;2023-02-01T03:38:48;8.20;;;2.97;;
19747;SDS011;10032;51.386;12.516;2023-02-01T03:49:33;6.57;;;2.57;;
19747;SDS011;10032;51.386;12.516;2023-02-01T03:52:02;4.50;;;2.60;;
19747;SDS011;10032;51.386;12.516;2023-02-01T03:54:32;7.17;;;3.10;;
19747;SDS011;10032;51.386;12.516;2023-02-01T03:56:59;3.23;;;2.30;;
19747;SDS011;10032;51.386;12.516;2023-02-01T03:59:30;5.27;;;2.30;;
19747;SDS011;10032;51.386;12.516;2023-02-01T04:01:55;4.90;;;2.63;;
19747;SDS011;10032;51.386;12.516;2023-02-01T04:04:21;6.37;;;3.03;;
19747;SDS011;10032;51.386;12.516;2023-02-01T04:06:49;8.80;;;2.87;;
19747;SDS011;10032;51.386;12.516;2023-02-01T04:09:15;5.87;;;2.43;;
19747;SDS011;10032;51.386;12.516;2023-02-01T04:11:41;3.40;;;2.20;;
19747;SDS011;10032;51.386;12.516;2023-02-01T04:14:07;7.70;;;2.80;;
19747;SDS011;10032;51.386;12.516;2023-02-01T04:16:33;9.10;;;2.90;;
19747;SDS011;10032;51.386;12.516;2023-02-01T04:18:59;3.73;;;2.10;;
19747;SDS011;10032;51.386;12.516;2023-02-01T04:21:27;12.70;;;2.90;;
19747;SDS011;10032;51.386;12.516;2023-02-01T04:23:53;4.23;;;2.50;;
19747;SDS011;10032;51.386;12.516;2023-02-01T04:26:19;9.37;;;3.57;;
19747;SDS011;10032;51.386;12.516;2023-02-01T04:28:46;12.17;;;3.30;;
19747;SDS011;10032;51.386;12.516;2023-02-01T04:31:15;10.93;;;3.27;;
19747;SDS011;10032;51.386;12.516;2023-02-01T04:33:42;6.40;;;2.90;;
19747;SDS011;10032;51.386;12.516;2023-02-01T04:36:08;6.67;;;3.33;;
19747;SDS011;10032;51.386;12.516;2023-02-01T04:38:33;8.67;;;3.47;;
19747;SDS011;10032;51.386;12.516;2023-02-01T04:40:59;7.27;;;2.67;;
19747;SDS011;10032;51.386;12.516;2023-02-01T04:43:25;6.37;;;2.93;;
19747;SDS011;10032;51.386;12.516;2023-02-01T04:45:51;4.97;;;2.53;;
19747;SDS011;10032;51.386;12.516;2023-02-01T04:48:17;5.83;;;2.50;;
19747;SDS011;10032;51.386;12.516;2023-02-01T04:50:44;7.03;;;3.10;;
19747;SDS011;10032;51.386;12.516;2023-02-01T04:53:16;4.20;;;2.80;;
19747;SDS011;10032;51.386;12.516;2023-02-01T04:55:42;6.47;;;2.97;;
19747;SDS011;10032;51.386;12.516;2023-02-01T04:58:09;10.87;;;2.77;;
19747;SDS011;10032;51.386;12.516;2023-02-01T05:00:35;10.53;;;2.90;;
19747;SDS011;10032;51.386;12.516;2023-02-01T05:03:01;9.67;;;2.37;;
19747;SDS011;10032;51.386;12.516;2023-02-01T05:05:27;6.57;;;2.47;;
19747;SDS011;10032;51.386;12.516;2023-02-01T05:07:53;5.07;;;2.57;;
19747;SDS011;10032;51.386;12.516;2023-02-01T05:10:18;6.33;;;2.73;;
19747;SDS011;10032;51.386;12.516;2023-02-01T05:12:44;4.90;;;2.60;;
19747;SDS011;10032;51.386;12.516;2023-02-01T05:15:29;11.07;;;2.73;;
19747;SDS011;10032;51.386;12.516;2023-02-01T05:17:55;8.10;;;2.97;;
19747;SDS011;10032;51.386;12.516;2023-02-01T05:20:23;9.80;;;3.30;;
19747;SDS011;10032;51.386;12.516;2023-02-01T05:22:49;7.87;;;2.87;;
19747;SDS011;10032;51.386;12.516;2023-02-01T05:25:15;8.73;;;2.90;;
19747;SDS011;10032;51.386;12.516;2023-02-01T05:27:40;6.07;;;3.20;;
19747;SDS011;10032;51.386;12.516;2023-02-01T05:30:06;6.27;;;2.80;;
19747;SDS011;10032;51.386;12.516;2023-02-01T05:32:32;8.13;;;2.67;;
19747;SDS011;10032;51.386;12.516;2023-02-01T05:34:58;6.57;;;2.83;;
19747;SDS011;10032;51.386;12.516;2023-02-01T05:37:23;8.57;;;3.90;;
19747;SDS011;10032;51.386;12.516;2023-02-01T05:39:49;6.73;;;3.47;;
19747;SDS011;10032;51.386;12.516;2023-02-01T05:42:14;4.07;;;2.97;;
19747;SDS011;10032;51.386;12.516;2023-02-01T05:44:40;7.37;;;2.90;;
19747;SDS011;10032;51.386;12.516;2023-02-01T05:47:05;7.33;;;2.83;;
19747;SDS011;10032;51.386;12.516;2023-02-01T05:49:31;9.83;;;3.60;;
19747;SDS011;10032;51.386;12.516;2023-02-01T05:51:56;8.13;;;2.93;;
19747;SDS011;10032;51.386;12.516;2023-02-01T05:54:22;7.17;;;2.60;;
19747;SDS011;10032;51.386;12.516;2023-02-01T05:56:47;12.00;;;4.47;;
19747;SDS011;10032;51.386;12.516;2023-02-01T05:59:12;9.63;;;2.90;;
19747;SDS011;10032;51.386;12.516;2023-02-01T06:01:38;8.20;;;3.03;;
19747;SDS011;10032;51.386;12.516;2023-02-01T06:04:03;9.67;;;3.83;;
19747;SDS011;10032;51.386;12.516;2023-02-01T06:06:29;6.13;;;3.43;;
19747;SDS011;10032;51.386;12.516;2023-02-01T06:08:54;10.27;;;3.20;;
19747;SDS011;10032;51.386;12.516;2023-02-01T06:11:20;9.40;;;3.60;;
19747;SDS011;10032;51.386;12.516;2023-02-01T06:13:45;6.37;;;2.80;;
19747;SDS011;10032;51.386;12.516;2023-02-01T06:16:11;3.63;;;2.40;;
19747;SDS011;10032;51.386;12.516;2023-02-01T06:18:36;6.27;;;2.47;;
19747;SDS011;10032;51.386;12.516;2023-02-01T06:21:02;8.33;;;3.80;;
19747;SDS011;10032;51.386;12.516;2023-02-01T06:23:30;7.20;;;2.70;;
19747;SDS011;10032;51.386;12.516;2023-02-01T06:26:02;9.33;;;3.33;;
19747;SDS011;10032;51.386;12.516;2023-02-01T06:28:30;8.77;;;2.67;;
19747;SDS011;10032;51.386;12.516;2023-02-01T06:30:56;9.27;;;4.60;;
19747;SDS011;10032;51.386;12.516;2023-02-01T06:33:23;8.10;;;2.77;;
19747;SDS011;10032;51.386;12.516;2023-02-01T06:35:55;6.37;;;2.70;;
19747;SDS011;10032;51.386;12.516;2023-02-01T06:38:22;6.63;;;2.73;;
19747;SDS011;10032;51.386;12.516;2023-02-01T06:40:51;4.07;;;2.63;;
19747;SDS011;10032;51.386;12.516;2023-02-01T06:43:18;6.00;;;2.80;;
19747;SDS011;10032;51.386;12.516;2023-02-01T06:45:43;9.50;;;3.00;;
19747;SDS011;10032;51.386;12.516;2023-02-01T06:48:08;6.43;;;2.87;;
19747;SDS011;10032;51.386;12.516;2023-02-01T06:50:34;6.80;;;2.50;;
19747;SDS011;10032;51.386;12.516;2023-02-01T06:53:00;5.90;;;2.87;;
19747;SDS011;10032;51.386;12.516;2023-02-01T06:55:25;5.00;;;2.33;;
19747;SDS011;10032;51.386;12.516;2023-02-01T06:57:54;6.80;;;2.90;;
19747;SDS011;10032;51.386;12.516;2023-02-01T07:00:21;6.23;;;2.90;;
19747;SDS011;10032;51.386;12.516;2023-02-01T07:02:47;5.80;;;2.60;;
19747;SDS011;10032;51.386;12.516;2023-02-01T07:05:12;12.20;;;4.20;;
19747;SDS011;10032;51.386;12.516;2023-02-01T07:07:38;8.23;;;3.20;;
19747;SDS011;10032;51.386;12.516;2023-02-01T07:10:03;6.60;;;3.00;;
19747;SDS011;10032;51.386;12.516;2023-02-01T07:12:29;6.73;;;2.60;;
19747;SDS011;10032;51.386;12.516;2023-02-01T07:14:54;5.30;;;2.97;;
19747;SDS011;10032;51.386;12.516;2023-02-01T07:17:20;3.93;;;2.50;;
19747;SDS011;10032;51.386;12.516;2023-02-01T07:19:45;5.20;;;3.47;;
19747;SDS011;10032;51.386;12.516;2023-02-01T07:22:10;6.37;;;3.33;;
19747;SDS011;10032;51.386;12.516;2023-02-01T07:24:36;7.40;;;3.77;;
19747;SDS011;10032;51.386;12.516;2023-02-01T07:27:01;7.40;;;2.87;;
19747;SDS011;10032;51.386;12.516;2023-02-01T07:29:26;7.73;;;3.27;;
19747;SDS011;10032;51.386;12.516;2023-02-01T07:31:52;7.47;;;3.03;;
19747;SDS011;10032;51.386;12.516;2023-02-01T07:34:17;7.23;;;3.10;;
19747;SDS011;10032;51.386;12.516;2023-02-01T07:36:43;9.63;;;3.20;;
19747;SDS011;10032;51.386;12.516;2023-02-01T07:39:09;8.97;;;3.40;;
19747;SDS011;10032;51.386;12.516;2023-02-01T07:41:34;4.10;;;2.47;;
19747;SDS011;10032;51.386;12.516;2023-02-01T07:44:00;7.07;;;3.03;;
19747;SDS011;10032;51.386;12.516;2023-02-01T07:46:26;10.93;;;3.33;;
19747;SDS011;10032;51.386;12.516;2023-02-01T07:48:51;4.33;;;2.97;;
19747;SDS011;10032;51.386;12.516;2023-02-01T07:51:16;7.20;;;2.70;;
19747;SDS011;10032;51.386;12.516;2023-02-01T07:53:42;8.10;;;3.63;;
19747;SDS011;10032;51.386;12.516;2023-02-01T07:56:16;7.13;;;3.00;;
19747;SDS011;10032;51.386;12.516;2023-02-01T07:58:46;6.97;;;3.30;;
19747;SDS011;10032;51.386;12.516;2023-02-01T08:01:14;6.77;;;3.23;;
19747;SDS011;10032;51.386;12.516;2023-02-01T08:03:50;7.33;;;3.00;;
19747;SDS011;10032;51.386;12.516;2023-02-01T08:06:20;7.60;;;3.67;;
19747;SDS011;10032;51.386;12.516;2023-02-01T08:08:46;6.13;;;3.27;;
19747;SDS011;10032;51.386;12.516;2023-02-01T08:11:13;3.10;;;2.73;;
19747;SDS011;10032;51.386;12.516;2023-02-01T08:13:39;7.53;;;3.23;;
19747;SDS011;10032;51.386;12.516;2023-02-01T08:16:05;4.60;;;3.10;;
19747;SDS011;10032;51.386;12.516;2023-02-01T08:18:33;5.93;;;3.30;;
19747;SDS011;10032;51.386;12.516;2023-02-01T08:21:06;4.97;;;2.83;;
19747;SDS011;10032;51.386;12.516;2023-02-01T08:23:39;8.27;;;2.90;;
19747;SDS011;10032;51.386;12.516;2023-02-01T08:26:14;6.70;;;2.57;;
19747;SDS011;10032;51.386;12.516;2023-02-01T08:28:41;8.93;;;3.57;;
19747;SDS011;10032;51.386;12.516;2023-02-01T08:31:09;4.60;;;2.90;;
19747;SDS011;10032;51.386;12.516;2023-02-01T08:33:36;12.23;;;3.07;;
19747;SDS011;10032;51.386;12.516;2023-02-01T08:36:06;7.33;;;2.60;;
19747;SDS011;10032;51.386;12.516;2023-02-01T08:38:34;3.73;;;2.83;;
19747;SDS011;10032;51.386;12.516;2023-02-01T08:41:08;6.40;;;3.17;;
19747;SDS011;10032;51.386;12.516;2023-02-01T08:43:36;4.77;;;2.63;;
19747;SDS011;10032;51.386;12.516;2023-02-01T08:46:02;3.57;;;2.20;;
19747;SDS011;10032;51.386;12.516;2023-02-01T08:48:28;4.37;;;2.83;;
19747;SDS011;10032;51.386;12.516;2023-02-01T08:50:53;4.73;;;3.03;;
19747;SDS011;10032;51.386;12.516;2023-02-01T08:53:22;4.33;;;2.80;;
19747;SDS011;10032;51.386;12.516;2023-02-01T08:55:47;3.07;;;2.70;;
19747;SDS011;10032;51.386;12.516;2023-02-01T08:58:13;8.70;;;3.03;;
19747;SDS011;10032;51.386;12.516;2023-02-01T09:00:39;3.77;;;2.50;;
19747;SDS011;10032;51.386;12.516;2023-02-01T09:03:07;5.87;;;3.00;;
19747;SDS011;10032;51.386;12.516;2023-02-01T09:05:34;3.77;;;2.40;;
19747;SDS011;10032;51.386;12.516;2023-02-01T09:08:00;6.43;;;2.90;;
19747;SDS011;10032;51.386;12.516;2023-02-01T09:10:25;6.33;;;3.10;;
19747;SDS011;10032;51.386;12.516;2023-02-01T09:12:51;4.97;;;2.80;;
19747;SDS011;10032;51.386;12.516;2023-02-01T09:15:17;7.03;;;2.70;;
19747;SDS011;10032;51.386;12.516;2023-02-01T09:17:42;5.37;;;2.60;;
19747;SDS011;10032;51.386;12.516;2023-02-01T09:20:08;5.70;;;2.90;;
19747;SDS011;10032;51.386;12.516;2023-02-01T09:22:35;6.67;;;3.00;;
19747;SDS011;10032;51.386;12.516;2023-02-01T09:25:00;5.57;;;2.90;;
19747;SDS011;10032;51.386;12.516;2023-02-01T09:27:25;4.67;;;2.80;;
19747;SDS011;10032;51.386;12.516;2023-02-01T09:29:51;7.97;;;2.87;;
19747;SDS011;10032;51.386;12.516;2023-02-01T09:32:18;4.23;;;2.93;;
19747;SDS011;10032;51.386;12.516;2023-02-01T09:34:45;7.73;;;2.97;;
19747;SDS011;10032;51.386;12.516;2023-02-01T09:37:10;5.07;;;2.87;;
19747;SDS011;10032;51.386;12.516;2023-02-01T09:39:35;5.97;;;3.20;;
19747;SDS011;10032;51.386;12.516;2023-02-01T09:46:58;5.23;;;3.07;;
19747;SDS011;10032;51.386;12.516;2023-02-01T09:49:30;7.10;;;3.57;;
19747;SDS011;10032;51.386;12.516;2023-02-01T09:52:04;3.50;;;3.10;;
19747;SDS011;10032;51.386;12.516;2023-02-01T09:54:52;11.00;;;3.43;;
19747;SDS011;10032;51.386;12.516;2023-02-01T09:57:27;6.77;;;2.93;;
19747;SDS011;10032;51.386;12.516;2023-02-01T10:00:06;5.43;;;2.60;;
19747;SDS011;10032;51.386;12.516;2023-02-01T10:02:40;6.37;;;2.87;;
19747;SDS011;10032;51.386;12.516;2023-02-01T10:05:10;10.27;;;2.90;;
19747;SDS011;10032;51.386;12.516;2023-02-01T10:07:56;9.87;;;3.67;;
19747;SDS011;10032;51.386;12.516;2023-02-01T10:10:40;5.73;;;3.00;;
19747;SDS011;10032;51.386;12.516;2023-02-01T10:21:42;5.10;;;3.27;;
19747;SDS011;10032;51.386;12.516;2023-02-01T10:27:23;7.33;;;2.70;;
19747;SDS011;10032;51.386;12.516;2023-02-01T10:29:58;6.67;;;3.07;;
19747;SDS011;10032;51.386;12.516;2023-02-01T10:32:29;5.30;;;2.80;;
19747;SDS011;10032;51.386;12.516;2023-02-01T10:35:12;6.90;;;3.60;;
19747;SDS011;10032;51.386;12.516;2023-02-01T10:37:40;4.10;;;3.00;;
19747;SDS011;10032;51.386;12.516;2023-02-01T10:42:48;5.27;;;2.97;;
19747;SDS011;10032;51.386;12.516;2023-02-01T10:45:22;5.03;;;2.83;;
19747;SDS011;10032;51.386;12.516;2023-02-01T10:47:52;9.37;;;2.87;;
19747;SDS011;10032;51.386;12.516;2023-02-01T10:50:32;7.00;;;2.50;;
19747;SDS011;10032;51.386;12.516;2023-02-01T10:56:01;6.37;;;2.73;;
19747;SDS011;10032;51.386;12.516;2023-02-01T10:58:34;6.50;;;3.67;;
19747;SDS011;10032;51.386;12.516;2023-02-01T11:01:08;5.67;;;2.30;;
19747;SDS011;10032;51.386;12.516;2023-02-01T11:08:51;2.00;;;1.80;;
19747;SDS011;10032;51.386;12.516;2023-02-01T11:11:19;4.10;;;2.60;;
19747;SDS011;10032;51.386;12.516;2023-02-01T11:13:45;5.03;;;2.20;;
19747;SDS011;10032;51.386;12.516;2023-02-01T11:16:18;3.37;;;2.10;;
19747;SDS011;10032;51.386;12.516;2023-02-01T11:18:43;4.10;;;2.00;;
19747;SDS011;10032;51.386;12.516;2023-02-01T11:21:11;6.40;;;2.90;;
19747;SDS011;10032;51.386;12.516;2023-02-01T11:23:43;5.30;;;2.67;;
19747;SDS011;10032;51.386;12.516;2023-02-01T11:26:26;5.53;;;2.67;;
19747;SDS011;10032;51.386;12.516;2023-02-01T11:29:05;4.90;;;2.13;;
19747;SDS011;10032;51.386;12.516;2023-02-01T11:31:36;6.47;;;2.73;;
19747;SDS011;10032;51.386;12.516;2023-02-01T11:36:34;6.60;;;2.07;;
19747;SDS011;10032;51.386;12.516;2023-02-01T11:39:09;4.97;;;2.17;;
19747;SDS011;10032;51.386;12.516;2023-02-01T11:41:54;5.80;;;2.20;;
19747;SDS011;10032;51.386;12.516;2023-02-01T11:44:46;8.87;;;2.40;;
19747;SDS011;10032;51.386;12.516;2023-02-01T11:47:25;4.47;;;2.73;;
19747;SDS011;10032;51.386;12.516;2023-02-01T11:50:00;5.07;;;2.60;;
19747;SDS011;10032;51.386;12.516;2023-02-01T12:06:27;6.37;;;2.47;;
19747;SDS011;10032;51.386;12.516;2023-02-01T12:12:01;5.13;;;2.90;;
19747;SDS011;10032;51.386;12.516;2023-02-01T12:20:15;9.77;;;2.63;;
19747;SDS011;10032;51.386;12.516;2023-02-01T12:26:19;9.33;;;2.50;;
19747;SDS011;10032;51.386;12.516;2023-02-01T12:34:40;4.67;;;2.60;;
19747;SDS011;10032;51.386;12.516;2023-02-01T12:43:01;5.47;;;2.30;;
19747;SDS011;10032;51.386;12.516;2023-02-01T12:45:33;6.97;;;2.43;;
19747;SDS011;10032;51.386;12.516;2023-02-01T12:50:59;4.33;;;2.63;;
19747;SDS011;10032;51.386;12.516;2023-02-01T12:53:55;6.37;;;2.97;;
19747;SDS011;10032;51.386;12.516;2023-02-01T12:59:02;5.30;;;2.90;;
19747;SDS011;10032;51.386;12.516;2023-02-01T13:01:38;3.93;;;2.10;;
19747;SDS011;10032;51.386;12.516;2023-02-01T13:12:00;3.83;;;1.97;;
19747;SDS011;10032;51.386;12.516;2023-02-01T13:17:12;3.43;;;2.40;;
19747;SDS011;10032;51.386;12.516;2023-02-01T13:22:44;7.67;;;2.20;;
19747;SDS011;10032;51.386;12.516;2023-02-01T13:25:19;6.13;;;2.53;;
19747;SDS011;10032;51.386;12.516;2023-02-01T13:27:49;7.73;;;2.17;;
19747;SDS011;10032;51.386;12.516;2023-02-01T13:30:20;6.33;;;2.10;;
19747;SDS011;10032;51.386;12.516;2023-02-01T13:44:05;4.37;;;2.60;;
19747;SDS011;10032;51.386;12.516;2023-02-01T13:46:40;5.03;;;1.90;;
19747;SDS011;10032;51.386;12.516;2023-02-01T13:49:21;3.23;;;2.30;;
19747;SDS011;10032;51.386;12.516;2023-02-01T13:51:54;5.20;;;2.30;;
19747;SDS011;10032;51.386;12.516;2023-02-01T13:54:40;4.27;;;2.13;;
19747;SDS011;10032;51.386;12.516;2023-02-01T13:57:13;3.47;;;2.20;;
19747;SDS011;10032;51.386;12.516;2023-02-01T14:00:05;8.60;;;2.83;;
19747;SDS011;10032;51.386;12.516;2023-02-01T14:02:48;3.27;;;1.80;;
19747;SDS011;10032;51.386;12.516;2023-02-01T14:21:16;3.50;;;2.13;;
19747;SDS011;10032;51.386;12.516;2023-02-01T14:23:55;5.27;;;2.33;;
19747;SDS011;10032;51.386;12.516;2023-02-01T14:26:47;8.47;;;3.00;;
19747;SDS011;10032;51.386;12.516;2023-02-01T14:35:20;3.93;;;2.60;;
19747;SDS011;10032;51.386;12.516;2023-02-01T14:37:25;4.43;;;2.50;;
19747;SDS011;10032;51.386;12.516;2023-02-01T14:40:03;3.83;;;2.47;;
19747;SDS011;10032;51.386;12.516;2023-02-01T14:48:41;5.57;;;2.53;;
19747;SDS011;10032;51.386;12.516;2023-02-01T14:50:41;5.37;;;2.57;;
19747;SDS011;10032;51.386;12.516;2023-02-01T14:56:19;7.17;;;2.57;;
19747;SDS011;10032;51.386;12.516;2023-02-01T15:01:04;6.20;;;2.90;;
19747;SDS011;10032;51.386;12.516;2023-02-01T15:09:09;5.97;;;3.30;;
19747;SDS011;10032;51.386;12.516;2023-02-01T15:11:53;5.13;;;2.67;;
19747;SDS011;10032;51.386;12.516;2023-02-01T15:14:25;6.33;;;2.50;;
19747;SDS011;10032;51.386;12.516;2023-02-01T15:16:52;3.87;;;2.67;;
19747;SDS011;10032;51.386;12.516;2023-02-01T15:19:24;7.47;;;2.53;;
19747;SDS011;10032;51.386;12.516;2023-02-01T15:21:53;6.43;;;2.60;;
19747;SDS011;10032;51.386;12.516;2023-02-01T15:24:25;4.20;;;2.23;;
19747;SDS011;10032;51.386;12.516;2023-02-01T15:26:52;6.87;;;2.70;;
19747;SDS011;10032;51.386;12.516;2023-02-01T15:29:19;4.60;;;2.37;;
19747;SDS011;10032;51.386;12.516;2023-02-01T15:31:48;10.03;;;3.03;;
19747;SDS011;10032;51.386;12.516;2023-02-01T15:34:15;3.37;;;2.87;;
19747;SDS011;10032;51.386;12.516;2023-02-01T15:36:41;6.97;;;2.57;;
19747;SDS011;10032;51.386;12.516;2023-02-01T15:39:26;4.57;;;2.40;;
19747;SDS011;10032;51.386;12.516;2023-02-01T15:41:53;4.60;;;2.67;;
19747;SDS011;10032;51.386;12.516;2023-02-01T15:46:52;4.63;;;2.93;;
19747;SDS011;10032;51.386;12.516;2023-02-01T15:49:23;7.20;;;3.00;;
19747;SDS011;10032;51.386;12.516;2023-02-01T15:51:55;4.87;;;3.17;;
19747;SDS011;10032;51.386;12.516;2023-02-01T15:54:39;4.33;;;2.90;;
19747;SDS011;10032;51.386;12.516;2023-02-01T15:57:11;6.67;;;2.30;;
19747;SDS011;10032;51.386;12.516;2023-02-01T15:59:43;5.73;;;2.77;;
19747;SDS011;10032;51.386;12.516;2023-02-01T16:05:03;4.07;;;2.17;;
19747;SDS011;10032;51.386;12.516;2023-02-01T16:07:32;2.33;;;1.13;;
19747;SDS011;10032;51.386;12.516;2023-02-01T16:10:54;0.93;;;0.87;;
19747;SDS011;10032;51.386;12.516;2023-02-01T16:24:05;0.37;;;0.37;;
19747;SDS011;10032;51.386;12.516;2023-02-01T16:27:02;0.70;;;0.60;;
19747;SDS011;10032;51.386;12.516;2023-02-01T16:29:32;0.77;;;0.77;;
19747;SDS011;10032;51.386;12.516;2023-02-01T16:32:00;1.87;;;0.80;;
19747;SDS011;10032;51.386;12.516;2023-02-01T16:34:26;2.93;;;0.83;;
19747;SDS011;10032;51.386;12.516;2023-02-01T16:36:51;1.03;;;0.67;;
19747;SDS011;10032;51.386;12.516;2023-02-01T16:39:19;2.30;;;2.10;;
19747;SDS011;10032;51.386;12.516;2023-02-01T16:42:04;4.30;;;2.73;;
19747;SDS011;10032;51.386;12.516;2023-02-01T16:44:40;10.70;;;1.50;;
19747;SDS011;10032;51.386;12.516;2023-02-01T16:50:02;2.20;;;1.33;;
19747;SDS011;10032;51.386;12.516;2023-02-01T16:52:28;1.60;;;1.50;;
19747;SDS011;10032;51.386;12.516;2023-02-01T16:54:54;1.03;;;0.77;;
19747;SDS011;10032;51.386;12.516;2023-02-01T16:57:19;2.57;;;1.83;;
19747;SDS011;10032;51.386;12.516;2023-02-01T16:59:49;1.33;;;1.23;;
19747;SDS011;10032;51.386;12.516;2023-02-01T17:02:20;1.10;;;0.70;;
19747;SDS011;10032;51.386;12.516;2023-02-01T17:04:46;0.70;;;0.70;;
19747;SDS011;10032;51.386;12.516;2023-02-01T17:07:17;2.93;;;1.20;;
19747;SDS011;10032;51.386;12.516;2023-02-01T17:09:43;1.47;;;1.00;;
19747;SDS011;10032;51.386;12.516;2023-02-01T17:15:13;0.93;;;0.60;;
19747;SDS011;10032;51.386;12.516;2023-02-01T17:17:39;3.37;;;1.00;;
19747;SDS011;10032;51.386;12.516;2023-02-01T17:20:07;3.20;;;0.90;;
19747;SDS011;10032;51.386;12.516;2023-02-01T17:22:42;4.50;;;1.73;;
19747;SDS011;10032;51.386;12.516;2023-02-01T17:25:31;2.23;;;1.37;;
19747;SDS011;10032;51.386;12.516;2023-02-01T17:27:56;1.57;;;1.10;;
19747;SDS011;10032;51.386;12.516;2023-02-01T17:30:22;3.00;;;1.50;;
19747;SDS011;10032;51.386;12.516;2023-02-01T17:32:50;3.37;;;1.90;;
19747;SDS011;10032;51.386;12.516;2023-02-01T17:35:20;2.47;;;1.50;;
19747;SDS011;10032;51.386;12.516;2023-02-01T17:37:47;3.07;;;2.77;;
19747;SDS011;10032;51.386;12.516;2023-02-01T17:40:14;3.57;;;1.70;;
19747;SDS011;10032;51.386;12.516;2023-02-01T17:45:39;3.73;;;1.60;;
19747;SDS011;10032;51.386;12.516;2023-02-01T17:48:18;1.57;;;1.37;;
19747;SDS011;10032;51.386;12.516;2023-02-01T17:50:50;1.70;;;1.20;;
19747;SDS011;10032;51.386;12.516;2023-02-01T17:53:46;1.57;;;1.30;;
19747;SDS011;10032;51.386;12.516;2023-02-01T17:56:15;1.47;;;1.27;;
19747;SDS011;10032;51.386;12.516;2023-02-01T17:58:43;6.40;;;1.50;;
19747;SDS011;10032;51.386;12.516;2023-02-01T18:01:13;3.03;;;1.60;;
19747;SDS011;10032;51.386;12.516;2023-02-01T18:03:40;3.50;;;1.77;;
19747;SDS011;10032;51.386;12.516;2023-02-01T18:06:09;1.40;;;1.30;;
19747;SDS011;10032;51.386;12.516;2023-02-01T18:09:01;1.80;;;1.00;;
19747;SDS011;10032;51.386;12.516;2023-02-01T18:11:34;5.40;;;1.30;;